createdAt,value
2023-03-10T00:01:23.200Z,98678.72
2023-03-10T00:03:50.653Z,98681.25
2023-03-10T00:06:21.727Z,98672.63
2023-03-10T00:08:49.874Z,98675.16
2023-03-10T00:11:17.853Z,98666.59
2023-03-10T00:13:45.539Z,98652.03
2023-03-10T00:16:21.435Z,98657.16
2023-03-10T00:18:50.090Z,98649.44
2023-03-10T00:21:21.236Z,98641.72
2023-03-10T00:23:48.436Z,98640.84
2023-03-10T00:26:17.374Z,98648.56
2023-03-10T00:28:44.772Z,98635.69
2023-03-10T00:31:16.048Z,98630.50
2023-03-10T00:33:43.428Z,98620.19
2023-03-10T00:36:14.595Z,98619.31
2023-03-10T00:38:43.222Z,98614.19
2023-03-10T00:41:20.408Z,98597.91
2023-03-10T00:43:47.833Z,98599.63
2023-03-10T00:46:15.614Z,98594.47
2023-03-10T00:48:43.004Z,98580.75
2023-03-10T00:51:10.811Z,98577.28
2023-03-10T00:53:39.795Z,98579.81
2023-03-10T00:56:15.251Z,98572.09
2023-03-10T00:58:44.027Z,98577.25
2023-03-10T01:01:15.079Z,98563.59
2023-03-10T01:03:43.039Z,98553.34
2023-03-10T01:06:10.424Z,98554.22
2023-03-10T01:08:37.528Z,98544.78
2023-03-10T01:11:04.630Z,98549.91
2023-03-10T01:13:31.680Z,98538.72
2023-03-10T01:15:58.796Z,98527.50
2023-03-10T01:18:25.861Z,98515.53
2023-03-10T01:20:52.825Z,98513.84
2023-03-10T01:23:23.725Z,98492.41
2023-03-10T01:25:51.383Z,98488.09
2023-03-10T01:28:18.685Z,98488.94
2023-03-10T01:30:46.216Z,98488.94
2023-03-10T01:33:15.137Z,98494.91
2023-03-10T01:35:42.596Z,98471.66
2023-03-10T01:38:10.062Z,98463.06
2023-03-10T01:40:38.400Z,98463.03
2023-03-10T01:43:20.354Z,98467.25
2023-03-10T01:45:47.368Z,98459.53
2023-03-10T01:48:17.314Z,98445.00
2023-03-10T01:50:48.300Z,98438.16
2023-03-10T01:53:18.600Z,98426.97
2023-03-10T01:55:54.310Z,98432.97
2023-03-10T01:58:25.159Z,98431.25
2023-03-10T02:00:54.636Z,98409.81
2023-03-10T02:03:30.072Z,98402.97
2023-03-10T02:06:04.451Z,98418.44
2023-03-10T02:08:44.371Z,98404.75
2023-03-10T02:11:13.546Z,98394.50
2023-03-10T02:13:40.527Z,98391.06
2023-03-10T02:16:07.863Z,98384.22
2023-03-10T02:18:34.995Z,98378.28
2023-03-10T02:21:17.277Z,98368.03
2023-03-10T02:24:02.668Z,98357.78
2023-03-10T02:26:44.046Z,98352.66
2023-03-10T02:29:20.940Z,98351.81
2023-03-10T02:31:48.596Z,98344.13
2023-03-10T02:34:15.914Z,98323.56
2023-03-10T02:36:42.920Z,98318.44
2023-03-10T02:39:09.865Z,98311.56
2023-03-10T02:41:38.648Z,98311.56
2023-03-10T02:44:12.214Z,98305.53
2023-03-10T02:46:39.766Z,98296.13
2023-03-10T02:49:10.726Z,98298.69
2023-03-10T02:51:46.884Z,98304.72
2023-03-10T02:54:15.209Z,98300.44
2023-03-10T02:56:42.910Z,98293.56
2023-03-10T02:59:10.789Z,98285.00
2023-03-10T03:01:38.010Z,98276.47
2023-03-10T03:04:05.478Z,98266.19
2023-03-10T03:06:32.531Z,98264.44
2023-03-10T03:08:59.467Z,98252.41
2023-03-10T03:11:26.685Z,98253.25
2023-03-10T03:13:53.789Z,98248.09
2023-03-10T03:16:20.985Z,98248.97
2023-03-10T03:18:47.958Z,98246.41
2023-03-10T03:21:17.314Z,98241.25
2023-03-10T03:23:46.265Z,98236.97
2023-03-10T03:26:24.242Z,98228.41
2023-03-10T03:28:52.222Z,98229.25
2023-03-10T03:31:23.152Z,98230.97
2023-03-10T03:33:50.711Z,98236.09
2023-03-10T03:36:18.547Z,98223.25
2023-03-10T03:38:45.478Z,98213.81
2023-03-10T03:41:12.606Z,98211.25
2023-03-10T03:43:39.545Z,98194.09
2023-03-10T03:46:06.665Z,98192.38
2023-03-10T03:48:34.907Z,98195.81
2023-03-10T03:51:02.861Z,98186.38
2023-03-10T03:53:30.785Z,98176.09
2023-03-10T03:55:57.760Z,98165.81
2023-03-10T03:58:25.467Z,98152.97
2023-03-10T04:00:52.532Z,98151.25
2023-03-10T04:03:19.485Z,98152.09
2023-03-10T04:05:46.453Z,98150.38
2023-03-10T04:08:13.923Z,98146.97
2023-03-10T04:10:41.151Z,98124.69
2023-03-10T04:13:08.376Z,98141.00
2023-03-10T04:15:35.845Z,98130.72
2023-03-10T04:18:02.882Z,98134.16
2023-03-10T04:20:29.976Z,98125.59
2023-03-10T04:22:56.867Z,98135.06
2023-03-10T04:25:23.803Z,98135.94
2023-03-10T04:27:50.748Z,98125.63
2023-03-10T04:30:17.733Z,98127.31
2023-03-10T04:32:47.871Z,98128.16
2023-03-10T04:35:15.953Z,98133.31
2023-03-10T04:37:44.897Z,98114.44
2023-03-10T04:40:13.834Z,98117.88
2023-03-10T04:42:41.385Z,98112.75
2023-03-10T04:45:09.072Z,98105.00
2023-03-10T04:47:36.038Z,98111.03
2023-03-10T04:50:04.063Z,98102.50
2023-03-10T04:52:30.952Z,98102.47
2023-03-10T04:54:57.934Z,98097.34
2023-03-10T04:57:24.855Z,98081.94
2023-03-10T04:59:52.233Z,98088.78
2023-03-10T05:02:19.216Z,98077.63
2023-03-10T05:04:46.476Z,98075.91
2023-03-10T05:07:13.468Z,98080.22
2023-03-10T05:09:40.356Z,98071.66
2023-03-10T05:12:07.874Z,98069.09
2023-03-10T05:14:34.800Z,98069.09
2023-03-10T05:17:01.762Z,98053.69
2023-03-10T05:19:28.869Z,98057.09
2023-03-10T05:21:56.123Z,98048.53
2023-03-10T05:24:23.307Z,98039.97
2023-03-10T05:26:50.283Z,98040.81
2023-03-10T05:29:17.217Z,98047.72
2023-03-10T05:31:44.184Z,98034.81
2023-03-10T05:34:11.149Z,98036.56
2023-03-10T05:36:38.148Z,98024.53
2023-03-10T05:39:06.107Z,98030.56
2023-03-10T05:41:33.885Z,98028.84
2023-03-10T05:44:00.830Z,98031.44
2023-03-10T05:46:28.573Z,98022.00
2023-03-10T05:48:57.073Z,98012.56
2023-03-10T05:51:24.453Z,98012.59
2023-03-10T05:53:51.477Z,98004.88
2023-03-10T05:56:19.744Z,97998.88
2023-03-10T05:58:47.640Z,97997.13
2023-03-10T06:01:14.785Z,97993.72
2023-03-10T06:03:42.148Z,98001.44
2023-03-10T06:06:09.282Z,98001.47
2023-03-10T06:08:36.443Z,98001.44
2023-03-10T06:11:04.781Z,97999.75
2023-03-10T06:13:32.531Z,97998.03
2023-03-10T06:16:03.092Z,98003.22
2023-03-10T06:18:30.384Z,97996.34
2023-03-10T06:20:57.576Z,97998.06
2023-03-10T06:23:26.677Z,98005.75
2023-03-10T06:26:13.195Z,98002.34
2023-03-10T06:28:43.140Z,98000.63
2023-03-10T06:31:20.082Z,97995.50
2023-03-10T06:33:47.283Z,97992.91
2023-03-10T06:36:14.894Z,97992.03
2023-03-10T06:38:42.207Z,98002.34
2023-03-10T06:41:09.420Z,97997.19
2023-03-10T06:43:36.970Z,97989.47
2023-03-10T06:46:07.223Z,97995.47
2023-03-10T06:48:35.151Z,97979.16
2023-03-10T06:51:04.969Z,97980.88
2023-03-10T06:53:31.866Z,97981.75
2023-03-10T06:56:07.206Z,97981.75
2023-03-10T06:58:36.044Z,97979.19
2023-03-10T07:01:04.513Z,97971.44
2023-03-10T07:03:31.798Z,97977.47
2023-03-10T07:05:59.690Z,97973.16
2023-03-10T07:08:28.473Z,97975.72
2023-03-10T07:10:56.494Z,97974.88
2023-03-10T07:13:23.584Z,97969.72
2023-03-10T07:15:50.668Z,97971.44
2023-03-10T07:18:17.905Z,97962.81
2023-03-10T07:20:45.906Z,97974.84
2023-03-10T07:23:13.904Z,97976.56
2023-03-10T07:25:41.093Z,97973.09
2023-03-10T07:28:08.365Z,97965.38
2023-03-10T07:30:36.639Z,97974.81
2023-03-10T07:33:04.138Z,97970.53
2023-03-10T07:35:31.087Z,97970.53
2023-03-10T07:37:58.089Z,97973.06
2023-03-10T07:40:25.246Z,97971.34
2023-03-10T07:42:56.111Z,97976.50
2023-03-10T07:45:25.234Z,97969.59
2023-03-10T07:47:54.019Z,97969.59
2023-03-10T07:50:21.942Z,97971.31
2023-03-10T07:52:50.307Z,97963.56
2023-03-10T07:55:18.519Z,97966.97
2023-03-10T07:57:45.564Z,97963.50
2023-03-10T08:00:13.614Z,97970.38
2023-03-10T08:02:41.037Z,97968.59
2023-03-10T08:05:10.087Z,97967.75
2023-03-10T08:07:38.141Z,97959.13
2023-03-10T08:10:06.260Z,97955.63
2023-03-10T08:12:34.204Z,97968.47
2023-03-10T08:15:01.349Z,97952.97
2023-03-10T08:17:33.585Z,97956.34
2023-03-10T08:20:01.337Z,97966.56
2023-03-10T08:22:28.930Z,97952.75
2023-03-10T08:24:56.558Z,97955.22
2023-03-10T08:27:23.761Z,97971.41
2023-03-10T08:29:50.859Z,97964.41
2023-03-10T08:32:18.624Z,97965.31
2023-03-10T08:34:46.099Z,97959.31
2023-03-10T08:37:13.031Z,97964.47
2023-03-10T08:39:40.258Z,97961.91
2023-03-10T08:42:10.996Z,97964.47
2023-03-10T08:44:38.578Z,97967.88
2023-03-10T08:47:05.771Z,97963.47
2023-03-10T08:49:32.821Z,97960.78
2023-03-10T08:52:00.390Z,97970.91
2023-03-10T08:54:27.518Z,97966.34
2023-03-10T08:56:54.674Z,97968.84
2023-03-10T08:59:21.623Z,97965.13
2023-03-10T09:01:48.681Z,97968.38
2023-03-10T09:04:15.767Z,97966.41
2023-03-10T09:06:42.852Z,97961.59
2023-03-10T09:09:11.117Z,97963.72
2023-03-10T09:11:40.721Z,97981.78
2023-03-10T09:14:10.102Z,97981.84
2023-03-10T09:16:39.572Z,97977.97
2023-03-10T09:19:06.673Z,97989.00
2023-03-10T09:21:33.985Z,98004.09
2023-03-10T09:24:02.017Z,97998.69
2023-03-10T09:26:29.172Z,97988.78
2023-03-10T09:28:57.258Z,97980.16
2023-03-10T09:31:36.402Z,97990.16
2023-03-10T09:34:04.202Z,97986.31
2023-03-10T09:36:31.503Z,97981.53
2023-03-10T09:38:59.551Z,97984.66
2023-03-10T09:41:41.816Z,97983.31
2023-03-10T09:44:43.449Z,97985.75
2023-03-10T09:47:10.875Z,97984.69
2023-03-10T09:49:51.279Z,97994.78
2023-03-10T09:52:48.179Z,98005.22
2023-03-10T09:55:33.497Z,98002.75
2023-03-10T09:58:02.502Z,98009.69
2023-03-10T10:00:39.938Z,98007.97
2023-03-10T10:03:22.634Z,98009.59
2023-03-10T10:05:52.754Z,98009.44
2023-03-10T10:08:44.892Z,98017.03
2023-03-10T10:11:18.033Z,98024.03
2023-03-10T10:13:46.151Z,98016.31
2023-03-10T10:16:33.552Z,98018.00
2023-03-10T10:19:14.216Z,98016.31
2023-03-10T10:22:22.384Z,98027.56
2023-03-10T10:25:14.087Z,98026.66
2023-03-10T10:27:42.992Z,98023.16
2023-03-10T10:30:39.468Z,98028.28
2023-03-10T10:33:10.193Z,98032.75
2023-03-10T10:35:59.750Z,98043.34
2023-03-10T10:38:32.461Z,98038.16
2023-03-10T10:41:22.450Z,98041.38
2023-03-10T10:43:50.546Z,98043.00
2023-03-10T10:46:27.736Z,98043.88
2023-03-10T10:49:02.573Z,98049.22
2023-03-10T10:51:35.869Z,98050.00
2023-03-10T10:54:28.968Z,98053.44
2023-03-10T10:56:59.469Z,98057.50
2023-03-10T10:59:33.672Z,98059.28
2023-03-10T11:02:32.447Z,98056.66
2023-03-10T11:05:37.571Z,98048.84
2023-03-10T11:08:26.469Z,98063.56
2023-03-10T11:11:00.717Z,98057.50
2023-03-10T11:13:44.194Z,98055.06
2023-03-10T11:16:22.193Z,98051.75
2023-03-10T11:19:16.468Z,98040.78
2023-03-10T11:21:49.560Z,98047.72
2023-03-10T11:24:41.845Z,98051.19
2023-03-10T11:27:50.823Z,98052.06
2023-03-10T11:30:58.291Z,98047.81
2023-03-10T11:34:00.334Z,98056.41
2023-03-10T11:36:55.888Z,98052.88
2023-03-10T11:39:57.871Z,98057.06
2023-03-10T11:42:42.744Z,98061.56
2023-03-10T11:45:24.601Z,98053.97
2023-03-10T11:47:56.402Z,98054.97
2023-03-10T11:50:35.230Z,98050.78
2023-03-10T11:53:25.897Z,98052.47
2023-03-10T11:55:55.490Z,98047.06
2023-03-10T11:58:32.304Z,98048.72
2023-03-10T12:01:00.105Z,98055.56
2023-03-10T12:03:59.703Z,98053.75
2023-03-10T12:06:45.652Z,98052.06
2023-03-10T12:09:48.502Z,98059.97
2023-03-10T12:12:26.183Z,98058.25
2023-03-10T12:14:55.500Z,98055.72
2023-03-10T12:17:22.690Z,98061.75
2023-03-10T12:20:23.305Z,98047.56
2023-03-10T12:22:56.478Z,98051.50
2023-03-10T12:25:29.709Z,98059.16
2023-03-10T12:28:17.814Z,98055.44
2023-03-10T12:30:58.287Z,98043.16
2023-03-10T12:33:31.274Z,98049.84
2023-03-10T12:36:16.438Z,98051.66
2023-03-10T12:39:46.153Z,98063.19
2023-03-10T12:42:32.846Z,98058.41
2023-03-10T12:45:28.612Z,98045.28
2023-03-10T12:48:04.485Z,98049.09
2023-03-10T12:50:50.671Z,98054.78
2023-03-10T12:53:54.317Z,98061.34
2023-03-10T12:56:43.337Z,98055.56
2023-03-10T13:00:03.119Z,98048.69
2023-03-10T13:02:37.767Z,98039.25
2023-03-10T13:05:13.939Z,98049.41
2023-03-10T13:07:49.396Z,98044.41
2023-03-10T13:10:22.484Z,98047.19
2023-03-10T13:12:54.690Z,98040.72
2023-03-10T13:15:32.124Z,98041.28
2023-03-10T13:18:22.288Z,98045.03
2023-03-10T13:20:50.576Z,98034.75
2023-03-10T13:23:28.267Z,98036.69
2023-03-10T13:26:15.593Z,98044.59
2023-03-10T13:28:55.454Z,98052.41
2023-03-10T13:31:32.248Z,98062.03
2023-03-10T13:34:14.206Z,98053.31
2023-03-10T13:36:41.456Z,98054.84
2023-03-10T13:39:28.028Z,98041.72
2023-03-10T13:41:59.426Z,98050.81
2023-03-10T13:44:37.377Z,98035.75
2023-03-10T13:47:15.778Z,98044.34
2023-03-10T13:49:49.903Z,98044.34
2023-03-10T13:52:22.222Z,98046.06
2023-03-10T13:54:50.218Z,98046.22
2023-03-10T13:57:31.784Z,98046.56
2023-03-10T13:59:59.671Z,98043.47
2023-03-10T14:02:40.607Z,98054.22
2023-03-10T14:05:37.461Z,98056.09
2023-03-10T14:08:04.751Z,98051.03
2023-03-10T14:10:31.727Z,98047.03
2023-03-10T14:12:58.684Z,98046.41
2023-03-10T14:15:31.581Z,98045.81
2023-03-10T14:18:07.453Z,98058.31
2023-03-10T14:20:43.089Z,98040.44
2023-03-10T14:23:19.040Z,98034.75
2023-03-10T14:25:52.863Z,98037.44
2023-03-10T14:28:29.332Z,98036.56
2023-03-10T14:30:56.779Z,98032.13
2023-03-10T14:33:23.859Z,98029.28
2023-03-10T14:35:51.015Z,98026.41
2023-03-10T14:38:18.480Z,98021.06
2023-03-10T14:40:52.368Z,98018.50
2023-03-10T14:43:23.592Z,98018.59
2023-03-10T14:45:53.037Z,98026.53
2023-03-10T14:48:23.795Z,98023.31
2023-03-10T14:50:50.806Z,98017.69
2023-03-10T14:53:24.283Z,98021.66
2023-03-10T14:55:54.817Z,98019.56
2023-03-10T14:58:29.511Z,98028.56
2023-03-10T15:00:56.509Z,98036.59
2023-03-10T15:03:23.515Z,98026.44
2023-03-10T15:05:50.502Z,98041.34
2023-03-10T15:08:18.180Z,98039.75
2023-03-10T15:10:51.151Z,98040.66
2023-03-10T15:13:21.947Z,98031.97
2023-03-10T15:15:49.795Z,98041.53
2023-03-10T15:18:20.408Z,98029.59
2023-03-10T15:20:47.916Z,98033.16
2023-03-10T15:23:18.162Z,98033.25
2023-03-10T15:25:46.450Z,98037.78
2023-03-10T15:28:14.029Z,98044.00
2023-03-10T15:30:41.288Z,98049.28
2023-03-10T15:33:10.588Z,98045.16
2023-03-10T15:35:39.646Z,98041.06
2023-03-10T15:38:07.135Z,98048.22
2023-03-10T15:40:35.338Z,98053.56
2023-03-10T15:43:02.782Z,98062.34
2023-03-10T15:45:31.776Z,98071.00
2023-03-10T15:47:59.201Z,98078.81
2023-03-10T15:50:26.623Z,98084.88
2023-03-10T15:52:58.640Z,98076.28
2023-03-10T15:55:27.637Z,98051.31
2023-03-10T15:57:56.145Z,98062.69
2023-03-10T16:00:25.514Z,98054.25
2023-03-10T16:02:52.962Z,98059.56
2023-03-10T16:05:20.335Z,98056.22
2023-03-10T16:07:47.354Z,98060.56
2023-03-10T16:10:17.834Z,98066.59
2023-03-10T16:12:44.789Z,98063.13
2023-03-10T16:15:15.333Z,98068.28
2023-03-10T16:17:43.914Z,98051.09
2023-03-10T16:20:12.736Z,98050.28
2023-03-10T16:22:42.893Z,98053.78
2023-03-10T16:25:15.361Z,98056.34
2023-03-10T16:27:44.240Z,98060.66
2023-03-10T16:30:13.835Z,98069.31
2023-03-10T16:32:44.828Z,98071.06
2023-03-10T16:35:11.796Z,98072.84
2023-03-10T16:37:38.707Z,98070.25
2023-03-10T16:40:07.615Z,98077.19
2023-03-10T16:42:35.835Z,98079.84
2023-03-10T16:45:06.755Z,98079.03
2023-03-10T16:47:33.865Z,98073.00
2023-03-10T16:50:00.829Z,98072.19
2023-03-10T16:52:27.802Z,98060.16
2023-03-10T16:55:00.735Z,98056.78
2023-03-10T16:57:27.743Z,98065.44
2023-03-10T16:59:54.697Z,98056.91
2023-03-10T17:02:21.597Z,98056.13
2023-03-10T17:04:49.158Z,98051.03
2023-03-10T17:07:16.403Z,98037.34
2023-03-10T17:09:43.361Z,98045.13
2023-03-10T17:12:10.284Z,98037.38
2023-03-10T17:14:37.305Z,98051.16
2023-03-10T17:17:06.688Z,98049.41
2023-03-10T17:19:34.847Z,98052.84
2023-03-10T17:22:01.905Z,98064.03
2023-03-10T17:24:29.214Z,98067.50
2023-03-10T17:26:56.164Z,98080.38
2023-03-10T17:29:23.175Z,98073.53
2023-03-10T17:31:50.530Z,98073.53
2023-03-10T17:34:19.670Z,98066.66
2023-03-10T17:36:46.966Z,98066.66
2023-03-10T17:39:21.592Z,98065.78
2023-03-10T17:41:49.636Z,98070.09
2023-03-10T17:44:16.930Z,98062.34
2023-03-10T17:46:43.909Z,98052.91
2023-03-10T17:49:15.206Z,98041.72
2023-03-10T17:51:44.266Z,98052.06
2023-03-10T17:54:20.183Z,98058.97
2023-03-10T17:56:48.258Z,98056.38
2023-03-10T17:59:16.252Z,98064.97
2023-03-10T18:01:45.171Z,98058.09
2023-03-10T18:04:12.480Z,98052.06
2023-03-10T18:06:39.986Z,98049.53
2023-03-10T18:09:12.897Z,98054.69
2023-03-10T18:11:39.873Z,98058.97
2023-03-10T18:14:07.080Z,98056.41
2023-03-10T18:16:38.959Z,98063.28
2023-03-10T18:19:07.320Z,98057.25
2023-03-10T18:21:35.778Z,98046.94
2023-03-10T18:24:03.904Z,98046.91
2023-03-10T18:26:31.984Z,98045.22
2023-03-10T18:28:59.840Z,98043.50
2023-03-10T18:31:30.419Z,98045.25
2023-03-10T18:33:58.180Z,98049.53
2023-03-10T18:36:25.702Z,98049.56
2023-03-10T18:38:54.075Z,98038.41
2023-03-10T18:41:25.635Z,98041.84
2023-03-10T18:43:53.588Z,98037.53
2023-03-10T18:46:20.838Z,98039.25
2023-03-10T18:48:48.368Z,98030.66
2023-03-10T18:51:15.862Z,98023.78
2023-03-10T18:53:42.978Z,98013.50
2023-03-10T18:56:10.439Z,98016.91
2023-03-10T18:58:37.522Z,98017.81
2023-03-10T19:01:11.247Z,98025.53
2023-03-10T19:03:38.584Z,98030.69
2023-03-10T19:06:06.609Z,98027.25
2023-03-10T19:08:37.211Z,98028.09
2023-03-10T19:11:05.165Z,98026.38
2023-03-10T19:13:32.132Z,98010.06
2023-03-10T19:15:59.312Z,98016.94
2023-03-10T19:18:26.347Z,98022.09
2023-03-10T19:21:00.167Z,98018.66
2023-03-10T19:23:28.567Z,98017.81
2023-03-10T19:25:55.897Z,98012.66
2023-03-10T19:28:22.932Z,98010.06
2023-03-10T19:30:49.932Z,98024.66
2023-03-10T19:33:16.906Z,98023.78
2023-03-10T19:35:44.150Z,98008.34
2023-03-10T19:38:11.139Z,98010.06
2023-03-10T19:40:38.563Z,98012.63
2023-03-10T19:43:05.806Z,98010.91
2023-03-10T19:45:32.846Z,98017.78
2023-03-10T19:47:59.815Z,98016.06
2023-03-10T19:50:27.036Z,98010.91
2023-03-10T19:52:54.031Z,98012.66
2023-03-10T19:55:24.060Z,97995.47
2023-03-10T19:57:54.050Z,97985.19
2023-03-10T20:00:31.082Z,97988.59
2023-03-10T20:02:58.826Z,97997.22
2023-03-10T20:05:26.905Z,97993.75
2023-03-10T20:07:54.052Z,97995.47
2023-03-10T20:10:21.146Z,97986.03
2023-03-10T20:12:48.155Z,97983.47
2023-03-10T20:15:15.747Z,97978.31
2023-03-10T20:17:42.800Z,97974.03
2023-03-10T20:20:11.023Z,97966.28
2023-03-10T20:22:40.572Z,97963.72
2023-03-10T20:25:10.352Z,97972.31
2023-03-10T20:27:38.098Z,97977.44
2023-03-10T20:30:08.562Z,97968.00
2023-03-10T20:32:35.936Z,97969.72
2023-03-10T20:35:04.329Z,97957.72
2023-03-10T20:37:31.574Z,97968.84
2023-03-10T20:39:58.500Z,97974.00
2023-03-10T20:42:25.485Z,97968.88
2023-03-10T20:44:52.449Z,97972.28
2023-03-10T20:47:19.430Z,97971.44
2023-03-10T20:49:46.343Z,97962.00
2023-03-10T20:52:13.262Z,97963.72
2023-03-10T20:54:40.299Z,97958.56
2023-03-10T20:57:08.589Z,97960.28
2023-03-10T20:59:36.806Z,97960.28
2023-03-10T21:02:05.540Z,97954.28
2023-03-10T21:04:33.126Z,97947.41
2023-03-10T21:07:00.267Z,97970.59
2023-03-10T21:09:27.241Z,97974.88
2023-03-10T21:11:54.142Z,97971.44
2023-03-10T21:14:21.078Z,97959.41
2023-03-10T21:16:48.202Z,97963.72
2023-03-10T21:19:15.127Z,97967.16
2023-03-10T21:21:42.109Z,97956.00
2023-03-10T21:24:09.359Z,97967.16
2023-03-10T21:26:36.327Z,97962.03
2023-03-10T21:29:04.239Z,97956.88
2023-03-10T21:31:31.207Z,97959.44
2023-03-10T21:33:58.174Z,97954.28
2023-03-10T21:36:25.467Z,97966.31
2023-03-10T21:38:52.884Z,97958.56
2023-03-10T21:41:24.894Z,97964.59
2023-03-10T21:43:57.773Z,97966.31
2023-03-10T21:46:25.896Z,97968.88
2023-03-10T21:48:53.129Z,97961.16
2023-03-10T21:51:23.526Z,97966.31
2023-03-10T21:53:54.979Z,97953.44
2023-03-10T21:56:25.815Z,97961.16
2023-03-10T21:58:52.898Z,97944.84
2023-03-10T22:01:21.427Z,97950.84
2023-03-10T22:03:49.407Z,97939.69
2023-03-10T22:06:16.771Z,97940.56
2023-03-10T22:08:43.700Z,97931.13
2023-03-10T22:11:11.962Z,97931.13
2023-03-10T22:13:39.858Z,97925.97
2023-03-10T22:16:10.889Z,97924.28
2023-03-10T22:18:38.130Z,97926.84
2023-03-10T22:21:05.537Z,97939.69
2023-03-10T22:23:32.469Z,97932.81
2023-03-10T22:25:59.423Z,97936.25
2023-03-10T22:28:26.498Z,97933.69
2023-03-10T22:30:53.516Z,97935.38
2023-03-10T22:33:20.507Z,97937.13
2023-03-10T22:35:51.988Z,97937.13
2023-03-10T22:38:22.329Z,97937.13
2023-03-10T22:40:49.314Z,97937.97
2023-03-10T22:43:16.279Z,97943.13
2023-03-10T22:45:43.536Z,97949.97
2023-03-10T22:48:10.638Z,97938.81
2023-03-10T22:50:44.475Z,97943.09
2023-03-10T22:53:16.666Z,97940.53
2023-03-10T22:55:43.852Z,97943.13
2023-03-10T22:58:11.392Z,97949.13
2023-03-10T23:00:40.100Z,97949.94
2023-03-10T23:03:08.957Z,97950.81
2023-03-10T23:05:36.188Z,97966.22
2023-03-10T23:08:03.879Z,97959.38
2023-03-10T23:10:34.485Z,97969.66
2023-03-10T23:13:08.899Z,97955.09
2023-03-10T23:15:37.856Z,97965.38
2023-03-10T23:18:06.326Z,97959.38
2023-03-10T23:20:39.477Z,97959.38
2023-03-10T23:23:08.578Z,97965.38
2023-03-10T23:25:47.210Z,97955.06
2023-03-10T23:28:15.837Z,97968.78
2023-03-10T23:30:45.065Z,97958.47
2023-03-10T23:33:18.771Z,97958.44
2023-03-10T23:35:50.234Z,97967.91
2023-03-10T23:38:17.413Z,97973.88
2023-03-10T23:40:44.342Z,97970.41
2023-03-10T23:43:12.450Z,97972.16
2023-03-10T23:45:39.526Z,97999.59
2023-03-10T23:48:12.120Z,97996.19
2023-03-10T23:50:42.585Z,98011.59
2023-03-10T23:53:12.184Z,98020.16
2023-03-10T23:55:45.509Z,98030.44
2023-03-10T23:58:15.008Z,98033.84
